Shymkent Airport
UAII : now visible

Airfield :











YOU CAN JOIN US ON...

 
LOGIN :

Register | Disclaimer

   EN    FR    IT 

 









Legend :    VFR   Marginal VFR   IFR   Intensive IFR   Very Intensive IFR
Visi :
Ceiling :
>= 8 km
>= 3000ft
5 to 8 km
1000 to 3000 ft
1500m to 5 km
500 to 1000 ft
800 to 1500m
200 to 500 ft
< 800m
< 200 ft
Symbols :   Thunderstorms  Fog  Heavy snow  Heavy precipitations  Wind > 20 kt






- Airport Elevation : 1385 ft
- IATA code : CIT


UAII - Shymkent

CURRENT METAR :
  • 221300Z 26002MPS 9999 BKN006 OVC020CB M01/M02 Q1028 R28/0///70 NOSIG RMK QBB200 QFE733/0978

EXPIRED METARs :
  • 221230Z 23003MPS 9999 BKN009 OVC020CB M01/M02 Q1028 R10/0///70 NOSIG RMK QFE735/0981
  • 221200Z 26002MPS 9999 SCT006 OVC028CB M01/M02 Q1028 R10/0///70 NOSIG RMK QBB200 QFE735/0980
  • 221130Z 27003MPS 230V330 9999 SCT006 OVC028CB M01/M02 Q1028 R28/2///55 NOSIG RMK QBB200 QFE733/0978
  • 221100Z 26003MPS 8000 -SHSN SCT006 OVC028CB M01/M02 Q1028 R28/2///55 NOSIG RMK QBB200 QFE733/0977
  • 221030Z 27002MPS 8000 -SHSN SCT010 OVC030CB M01/M02 Q1028 R28/2///55 NOSIG RMK QFE733/0977

TAF COR TAF UAII
Valid from the 22 at 12:00 until the 23 at 12:00 UTC


221100Z 2212/2312 25003G08MPS 1500 -SHSN BR BKN005 OVC025CB TX03/2308Z TNM06/2301Z
TEMPO 2212/2218 20007MPS 0200 SHSN FZFG BKN002 OVC015CB
TEMPO 2218/2304 15006MPS 0200 FZFG VV002
BECMG 2304/2306 6000 NSW SCT011 BKN020 OVC100



MET'MAP, your aeronautical weather chart ! - Copyright ORBIFLY December 2007 - Disclaimer

ORBIFLY MET'MAP TEAM :

Programming & Development : Alexandra Zaïnal
Concept & original design : Baudouin d'Aumeries
Assistance for programming : Marc-Olivier Méhu
Technical & hardware support : Manuel Goepfert

Contact : metmap@orbifly.com




SOURCES & CREDITS :

   NOAA       Earth
Advisory